Aldea Apeleg, Argentina
Current Conditions -  °F | °C
As of 5:00 PM on Monday 26 Jan 2015 (Local Time) from SCBA Reporting Station
Broken Clouds Broken Clouds  
Wind Chill: 57°   Ceiling: 5000
Heat Index: 57°   Visibility: 6mi
Dew Point: 39°   Wind: 24mph
Humidity: 51%   Direction: 300°WNW
Pressure: 29.68"   Gusts: NA
Location:  44.86°S, 70.84°W
Report Text: SCBA 262000Z 30021KT 9999 BKN050 14/04 Q1005
Loading
Personal Weather Stations






























Interactive Weather Map New forecast layout! Learn more

10-Day Weather Forecast

Advertisements
Track Severe Weather on mobile